Terminal Aerodrome Forecast
Issued by NWS Duluth, MN

Home | Current Version | Previous Version | Text Only | Print | Product List | Glossary On
Versions: 1 2 3 4 5 6 7 8 9 10 11 12 13 14 15 16 17 18 19 20 21 22 23
496
FTUS43 KDLH 220538
TAFDLH
TAF
KDLH 220538Z 2206/2306 30005KT P6SM FEW150
     FM221600 26009KT P6SM SCT200
     FM221900 27010G17KT P6SM SCT200
     FM230200 25003KT P6SM SCT200=

USA.gov is the U.S. government's official web portal to all federal, state and local government web resources and services.